Molins de Rei, Spain
Current Conditions -  °F | °C
As of 8:30 AM on Wednesday 22 Oct 2014 (Local Time) from LELL Reporting Station
Moderate Fog Moderate Fog  
Wind Chill: 57°   Ceiling: Unl
Heat Index: 57°   Visibility: 6mi
Dew Point: 54°   Wind: 0mph
Humidity: 88%   Direction: NA
Pressure: 30.15"   Gusts: NA
Location:  41.42°N, 2.02°E
Report Text: LELL 220630Z 00000KT 9999 VCFG FEW004 14/12 Q1021
Loading
Personal Weather Stations






























Interactive Weather Map
Tropical Storm Tracking
New forecast layout! Learn more

10-Day Weather Forecast

Advertisements
Track Severe Weather on mobile